Terminal Aerodrome Forecast
Issued by NWS

Home | Current Version | Previous Version | Text Only | Print | Product List | Glossary On
Versions: 1 2 3 4 5 6 7 8 9 10 11 12 13 14 15
673
FTUS41 KBTV 181138
TAFMPV
TAF
KMPV 181138Z 1812/1912 VRB04KT P6SM -RA OVC030
      TEMPO 1812/1815 3SM RA BR OVC020
     FM181500 16005KT P6SM VCSH OVC025
     FM181700 17008KT P6SM BKN030
      TEMPO 1822/1902 3SM RA BR OVC020
     FM190600 VRB03KT 2SM BR OVC015=

USA.gov is the U.S. government's official web portal to all federal, state and local government web resources and services.